»·PEaware :: N494SP KBUR-KFUL

N494SP :: KBUR-KFUL

FLIGHT INFORMATION

Flight Status: Arrived
Operator: Privately registered:
United States
More flights under this callsign
Pilot: Arik L. (33213)
Aircraft: CESSNA 172 SKYHAWK
(C172)
More flights by this aircraft type
Origin: KBUR Bob Hope-Burbank
United States
Destination: KFUL Fullerton Mun
United States
More flights between these airports :: More routes between these airports
Route: EL MONTE
File this flight plan on PilotEdge
Remarks:
Altitude:
(Current/Filed)
3,500ft
Speed:
(Current/Filed)
110kts
Departed: 22-Jan-21 05:41 PM
Arrived: 22-Jan-21 06:11 PM
Distance/Time
Traveled:
6789nm/0:30
Distance/Time
To Go:
Arrived

Flight Plot

Page will automatically refresh every two minutes.

Flight plan parsing failed; only flown route is shown


Map Options




Map Legend


Flown Route
Filed Route
Departure Airport
Arrival Airport
Navaid (VOR, NDB)
Fix

Horizontal Profiles

Position Reports

Time Latitude Longitude Heading Altitude Ground
Speed
22-Jan-21 17:20 34.200097 -118.358741 77 720ft 0kts
22-Jan-21 17:21 34.200097 -118.358741 77 720ft 0kts
22-Jan-21 17:22 34.200097 -118.358741 77 720ft 0kts
22-Jan-21 17:23 34.200097 -118.358741 77 720ft 0kts
22-Jan-21 17:24 34.200097 -118.358741 77 720ft 0kts
22-Jan-21 17:25 34.200097 -118.358741 77 720ft 0kts
22-Jan-21 17:26 34.200097 -118.358741 77 720ft 0kts
22-Jan-21 17:27 34.200097 -118.358741 77 720ft 0kts
22-Jan-21 17:28 34.200097 -118.358741 77 720ft 0kts
22-Jan-21 17:29 34.200097 -118.358741 77 720ft 0kts
22-Jan-21 17:30 34.200097 -118.358741 77 720ft 0kts
22-Jan-21 17:31 34.200097 -118.358741 77 720ft 0kts
22-Jan-21 17:32 34.200097 -118.358741 77 720ft 0kts
22-Jan-21 17:33 34.200097 -118.358741 77 720ft 0kts
22-Jan-21 17:34 34.200097 -118.358741 77 720ft 0kts
22-Jan-21 17:35 34.200101 -118.358724 76 720ft 0kts
22-Jan-21 17:36 34.203864 -118.359267 347 734ft 28kts
22-Jan-21 17:37 34.210548 -118.361119 345 777ft 0kts
22-Jan-21 17:38 34.211704 -118.361508 0 781ft 0kts
22-Jan-21 17:39 34.211944 -118.361350 39 781ft 5kts
22-Jan-21 17:40 34.201426 -118.357166 163 961ft 75kts
22-Jan-21 17:41 34.181871 -118.343636 124 1637ft 90kts
22-Jan-21 17:42 34.159991 -118.322464 150 2182ft 111kts
22-Jan-21 17:43 34.134717 -118.321622 264 2478ft 122kts
22-Jan-21 17:44 34.134575 -118.364361 271 2495ft 129kts
22-Jan-21 17:45 34.135109 -118.405764 237 2497ft 129kts
22-Jan-21 17:46 34.115334 -118.413286 100 2990ft 110kts
22-Jan-21 17:47 34.121476 -118.377418 73 3469ft 120kts
22-Jan-21 17:48 34.125947 -118.335782 87 3494ft 125kts
22-Jan-21 17:49 34.126691 -118.294978 88 3496ft 116kts
22-Jan-21 17:50 34.127266 -118.256756 88 3502ft 113kts
22-Jan-21 17:51 34.127839 -118.218708 88 3499ft 114kts
22-Jan-21 17:52 34.128418 -118.180339 91 3500ft 114kts
22-Jan-21 17:53 34.120631 -118.143178 105 3501ft 114kts
22-Jan-21 17:54 34.111486 -118.106552 111 3499ft 114kts
22-Jan-21 17:55 34.099311 -118.071723 113 3501ft 115kts
22-Jan-21 17:56 34.085446 -118.045506 150 3499ft 115kts
22-Jan-21 17:57 34.060305 -118.029537 156 3500ft 115kts
22-Jan-21 17:58 34.030223 -118.016564 162 3500ft 114kts
22-Jan-21 17:59 34.000034 -118.005463 165 3069ft 118kts
22-Jan-21 18:00 33.978186 -117.998239 165 2726ft 119kts
22-Jan-21 18:01 33.952142 -117.989713 167 2267ft 97kts
22-Jan-21 18:02 33.932405 -117.985010 172 1958ft 91kts
22-Jan-21 18:03 33.913156 -117.981842 174 1528ft 93kts
22-Jan-21 18:04 33.894824 -117.968070 143 960ft 74kts
22-Jan-21 18:05 33.877636 -117.963450 205 721ft 69kts
22-Jan-21 18:06 33.871668 -117.981743 256 108ft 58kts
22-Jan-21 18:07 33.862644 -117.982027 58 576ft 73kts
22-Jan-21 18:08 33.870017 -117.958719 8 903ft 69kts
22-Jan-21 18:09 33.872791 -117.975859 258 101ft 56kts
22-Jan-21 18:10 33.872456 -117.979848 256 94ft 0kts
22-Jan-21 18:11 33.872410 -117.981796 255 90ft 8kts
22-Jan-21 18:13 33.872708 -117.982495 359 91ft 0kts
22-Jan-21 18:14 0.000408 0.013975 359 3ft 0kts
22-Jan-21 18:15 0.000408 0.013975 359 3ft 0kts

Navigation Log

Ident Type
Flight plan parsing failed, navigation log unavailable